Time;durP1;ratioP1;P1;durP2;ratioP2;P2;SDS_P1;SDS_P2;PMS_P1;PMS_P2;Temp;Humidity;BMP_temperature;BMP_pressure;BME280_temperature;BME280_humidity;BME280_pressure;Samples;Min_cycle;Max_cycle;Signal;HPM_P1;HPM_P2
2022/08/03 00:00:55;;;;;;;5.17;2.33;;;18.50;71.80;;;;;;5044088;28;20466;-52
2022/08/03 00:03:22;;;;;;;3.53;2.43;;;18.50;99.90;;;;;;5040770;28;20649;-51
2022/08/03 00:05:48;;;;;;;3.23;2.63;;;18.50;99.90;;;;;;5051525;28;20457;-52
2022/08/03 00:08:15;;;;;;;4.50;2.53;;;18.50;99.90;;;;;;5044145;28;20510;-51
2022/08/03 00:10:42;;;;;;;5.80;2.43;;;18.50;99.90;;;;;;5046449;28;20490;-52
2022/08/03 00:13:11;;;;;;;2.60;2.47;;;18.50;99.90;;;;;;5055670;28;20530;-52
2022/08/03 00:15:40;;;;;;;2.93;2.73;;;18.50;99.90;;;;;;5048445;28;20475;-50
2022/08/03 00:18:07;;;;;;;5.90;4.33;;;18.60;99.90;;;;;;5048807;28;20461;-52
2022/08/03 00:20:34;;;;;;;5.43;3.77;;;18.50;75.40;;;;;;5060971;28;20470;-52
2022/08/03 00:23:00;;;;;;;2.77;2.57;;;18.50;99.90;;;;;;5045944;28;20478;-51
2022/08/03 00:25:27;;;;;;;4.30;2.37;;;18.50;99.90;;;;;;5054554;28;20498;-52
2022/08/03 00:27:54;;;;;;;2.37;2.17;;;18.50;99.90;;;;;;5056600;28;21050;-52
2022/08/03 00:30:20;;;;;;;2.90;2.50;;;18.50;99.90;;;;;;5041749;28;20513;-52
2022/08/03 00:32:48;;;;;;;3.77;2.70;;;18.40;88.10;;;;;;5043892;28;20481;-52
2022/08/03 00:35:15;;;;;;;7.30;3.67;;;18.40;99.90;;;;;;5045716;28;20489;-52
2022/08/03 00:37:41;;;;;;;3.60;2.33;;;18.40;99.90;;;;;;5049714;28;20476;-52
2022/08/03 00:40:10;;;;;;;4.13;2.43;;;18.40;99.90;;;;;;5047387;28;20458;-52
2022/08/03 00:42:50;;;;;;;15.27;3.13;;;18.40;99.90;;;;;;5049608;28;20455;-52
2022/08/03 00:45:17;;;;;;;3.80;2.47;;;18.40;99.90;;;;;;5040948;28;20461;-51
2022/08/03 00:47:44;;;;;;;2.90;2.50;;;18.40;99.90;;;;;;5048833;28;20516;-53
2022/08/03 00:50:13;;;;;;;2.83;2.53;;;18.30;99.90;;;;;;5055406;28;20489;-52
2022/08/03 00:52:40;;;;;;;3.20;2.40;;;18.30;99.90;;;;;;5046308;28;20530;-52
2022/08/03 00:55:07;;;;;;;4.20;2.97;;;18.30;99.90;;;;;;5045942;28;20516;-52
2022/08/03 00:57:34;;;;;;;4.13;1.87;;;18.30;99.90;;;;;;5053734;28;20936;-52
2022/08/03 01:00:00;;;;;;;4.00;2.60;;;18.20;99.90;;;;;;5043170;28;20458;-52
2022/08/03 01:02:27;;;;;;;4.60;2.90;;;18.30;99.90;;;;;;5044084;28;20544;-52
2022/08/03 01:04:54;;;;;;;3.70;2.60;;;18.20;99.90;;;;;;5053180;28;20503;-52
2022/08/03 01:07:33;;;;;;;3.20;2.70;;;18.20;99.90;;;;;;5044248;28;20453;-51
2022/08/03 01:10:05;;;;;;;2.97;2.70;;;18.20;99.90;;;;;;5045860;28;20440;-52
2022/08/03 01:12:37;;;;;;;6.67;3.50;;;18.20;99.90;;;;;;5051423;28;20489;-52
2022/08/03 01:15:11;;;;;;;5.27;3.00;;;18.20;99.90;;;;;;5049638;28;20535;-52
2022/08/03 01:17:47;;;;;;;6.10;2.83;;;18.10;99.90;;;;;;5052354;28;20502;-52
2022/08/03 01:20:17;;;;;;;4.47;2.97;;;18.10;99.90;;;;;;5047958;28;20542;-52
2022/08/03 01:23:19;;;;;;;3.83;2.57;;;18.20;99.90;;;;;;5045708;28;20580;-51
2022/08/03 01:26:05;;;;;;;6.13;2.83;;;18.20;99.90;;;;;;5040231;28;20982;-52
2022/08/03 01:29:03;;;;;;;7.70;3.00;;;18.20;99.90;;;;;;5043143;28;20500;-52
2022/08/03 01:31:36;;;;;;;3.20;3.00;;;18.20;99.90;;;;;;5067459;28;20465;-52
2022/08/03 01:34:08;;;;;;;4.03;2.97;;;18.20;99.90;;;;;;5045418;28;20552;-52
2022/08/03 01:36:39;;;;;;;2.70;2.50;;;18.20;99.90;;;;;;5046974;28;20461;-53
2022/08/03 01:39:08;;;;;;;6.77;2.40;;;18.20;99.90;;;;;;5051503;28;20459;-51
2022/08/03 01:41:38;;;;;;;3.40;2.93;;;18.30;99.90;;;;;;5050397;28;20997;-51
2022/08/03 01:44:09;;;;;;;3.23;3.00;;;18.30;99.90;;;;;;5041984;28;20474;-52
2022/08/03 01:46:39;;;;;;;3.20;2.70;;;18.40;99.90;;;;;;5043359;28;20882;-52
2022/08/03 01:49:07;;;;;;;6.70;3.00;;;18.40;99.90;;;;;;5062160;28;20506;-52
2022/08/03 01:51:35;;;;;;;2.70;2.50;;;18.40;99.90;;;;;;5046336;28;20520;-52
2022/08/03 01:54:04;;;;;;;3.10;2.47;;;18.40;99.90;;;;;;5047669;28;20576;-52
2022/08/03 01:56:32;;;;;;;5.10;2.50;;;18.40;99.90;;;;;;5043118;28;20520;-51
2022/08/03 01:59:02;;;;;;;3.23;2.80;;;18.40;99.90;;;;;;5054600;28;20500;-52
2022/08/03 02:01:29;;;;;;;5.00;2.60;;;18.50;99.90;;;;;;5049593;28;20859;-51
2022/08/03 02:03:59;;;;;;;6.00;3.17;;;18.40;99.90;;;;;;5051792;28;20544;-52
2022/08/03 02:06:27;;;;;;;5.73;2.57;;;18.50;99.90;;;;;;5048106;28;20461;-52
2022/08/03 02:08:54;;;;;;;3.10;2.80;;;18.40;99.90;;;;;;5052835;28;20932;-52
2022/08/03 02:11:21;;;;;;;3.30;3.00;;;18.40;99.90;;;;;;5045299;28;20524;-52
2022/08/03 02:13:50;;;;;;;3.03;2.70;;;18.40;99.90;;;;;;5043828;28;20604;-52
2022/08/03 02:16:18;;;;;;;5.77;3.00;;;18.40;99.90;;;;;;5033697;28;21191;-51
2022/08/03 02:18:47;;;;;;;3.70;2.50;;;18.40;99.90;;;;;;5055719;28;20449;-52
2022/08/03 02:21:16;;;;;;;5.10;2.87;;;18.40;99.90;;;;;;5037575;28;20459;-52
2022/08/03 02:23:42;;;;;;;2.87;2.67;;;18.40;99.90;;;;;;5045820;28;20499;-51
2022/08/03 02:26:12;;;;;;;5.90;2.77;;;18.40;99.90;;;;;;5041707;28;20458;-52
2022/08/03 02:28:42;;;;;;;3.47;2.53;;;18.40;99.90;;;;;;5054785;28;20492;-52
2022/08/03 02:31:15;;;;;;;3.10;2.90;;;18.30;99.90;;;;;;5045038;28;20563;-51
2022/08/03 02:33:46;;;;;;;3.27;2.97;;;18.30;99.90;;;;;;5055261;23;20552;-50
2022/08/03 02:36:19;;;;;;;3.23;2.93;;;18.30;99.90;;;;;;5026891;28;20485;-49
2022/08/03 02:38:51;;;;;;;3.53;2.87;;;18.30;99.90;;;;;;5027519;28;20505;-49
2022/08/03 02:41:22;;;;;;;4.70;3.40;;;18.20;99.90;;;;;;5031036;28;20454;-51
2022/08/03 02:43:53;;;;;;;3.80;2.70;;;18.20;99.90;;;;;;5036422;28;20541;-50
2022/08/03 02:46:22;;;;;;;2.43;2.23;;;18.20;99.90;;;;;;5031674;28;20490;-50
2022/08/03 02:48:51;;;;;;;2.50;2.30;;;18.10;99.90;;;;;;5030409;28;21003;-50
2022/08/03 02:51:20;;;;;;;3.10;2.90;;;18.10;99.90;;;;;;5021846;28;20522;-50
2022/08/03 02:53:48;;;;;;;4.17;2.70;;;18.10;99.90;;;;;;5027424;28;20519;-50
2022/08/03 02:56:16;;;;;;;5.23;2.63;;;18.10;99.90;;;;;;5026103;28;20865;-50
2022/08/03 02:58:45;;;;;;;3.40;3.10;;;18.00;99.90;;;;;;5028115;28;20792;-50
2022/08/03 03:01:12;;;;;;;4.53;3.10;;;18.00;99.90;;;;;;5031110;28;20489;-50
2022/08/03 03:03:41;;;;;;;3.43;3.13;;;17.90;99.90;;;;;;5030763;28;20510;-50
2022/08/03 03:06:08;;;;;;;3.60;3.33;;;17.80;99.90;;;;;;5028480;28;20505;-50
2022/08/03 03:08:37;;;;;;;6.17;4.10;;;17.70;99.90;;;;;;5032407;28;20549;-49
2022/08/03 03:11:04;;;;;;;2.73;2.53;;;17.70;99.90;;;;;;5029494;28;20513;-51
2022/08/03 03:13:31;;;;;;;3.23;2.93;;;17.60;99.90;;;;;;5028492;28;20572;-50
2022/08/03 03:16:01;;;;;;;6.40;3.90;;;17.60;99.90;;;;;;5021033;28;20961;-51
2022/08/03 03:18:28;;;;;;;3.00;2.80;;;17.50;99.90;;;;;;5028436;28;20550;-50
2022/08/03 03:20:56;;;;;;;7.03;3.70;;;17.50;99.90;;;;;;5029236;28;20568;-50
2022/08/03 03:23:24;;;;;;;3.23;3.00;;;17.40;99.90;;;;;;5026821;28;20528;-50
2022/08/03 03:25:54;;;;;;;3.40;2.87;;;17.40;99.90;;;;;;5028402;28;20889;-50
2022/08/03 03:28:22;;;;;;;5.80;3.47;;;17.40;99.90;;;;;;5031170;28;21138;-50
2022/08/03 03:30:49;;;;;;;3.40;2.80;;;17.30;99.90;;;;;;5028639;28;20463;-50
2022/08/03 03:33:16;;;;;;;5.80;3.27;;;17.30;99.90;;;;;;5025970;28;21023;-51
2022/08/03 03:35:44;;;;;;;2.80;2.70;;;17.30;99.90;;;;;;5026514;28;20824;-51
2022/08/03 03:38:11;;;;;;;4.17;2.83;;;17.30;99.90;;;;;;5030615;28;20538;-50
2022/08/03 03:40:38;;;;;;;3.20;3.00;;;17.20;99.90;;;;;;5030014;28;20525;-51
2022/08/03 03:43:09;;;;;;;4.30;2.90;;;17.20;99.90;;;;;;5031081;28;20576;-50
2022/08/03 03:45:36;;;;;;;2.63;2.50;;;17.20;99.90;;;;;;5026294;28;20951;-50
2022/08/03 03:48:05;;;;;;;4.90;3.70;;;17.20;99.90;;;;;;5023109;28;20463;-50
2022/08/03 03:50:32;;;;;;;8.83;3.83;;;17.10;99.90;;;;;;5029736;28;20917;-51
2022/08/03 03:52:58;;;;;;;9.80;3.33;;;17.10;99.90;;;;;;5023931;28;20542;-51
2022/08/03 03:55:25;;;;;;;3.67;3.37;;;17.10;99.90;;;;;;5028227;28;20856;-50
2022/08/03 03:57:52;;;;;;;5.23;4.00;;;17.10;99.90;;;;;;5023497;28;20467;-50
2022/08/03 04:00:20;;;;;;;7.93;4.97;;;17.10;99.90;;;;;;5025485;28;20510;-50
2022/08/03 04:02:47;;;;;;;5.53;4.87;;;17.10;99.90;;;;;;5029155;28;20516;-50
2022/08/03 04:10:59;;;;;;;4.20;3.43;;;17.10;99.90;;;;;;5028560;28;20454;-51
2022/08/03 04:13:30;;;;;;;4.70;3.50;;;17.10;99.90;;;;;;5023576;28;20541;-51
2022/08/03 04:15:59;;;;;;;5.13;3.20;;;17.20;99.90;;;;;;5028678;28;20508;-50
2022/08/03 04:18:29;;;;;;;3.90;3.50;;;17.10;99.90;;;;;;5028108;28;20880;-51
2022/08/03 04:20:58;;;;;;;8.10;3.87;;;17.20;99.90;;;;;;5025958;28;20462;-50
2022/08/03 04:23:26;;;;;;;5.27;4.00;;;17.10;99.90;;;;;;5030923;28;20552;-50
2022/08/03 04:25:56;;;;;;;5.63;3.90;;;17.10;99.90;;;;;;5027354;28;20533;-50
2022/08/03 04:28:23;;;;;;;7.70;3.37;;;17.20;99.90;;;;;;5021937;28;20490;-49
2022/08/03 04:30:52;;;;;;;10.50;3.10;;;17.20;99.90;;;;;;5029613;28;20885;-52
2022/08/03 04:33:23;;;;;;;6.67;4.20;;;17.30;99.90;;;;;;5026685;28;20490;-51
2022/08/03 04:35:53;;;;;;;5.33;3.13;;;17.20;99.90;;;;;;5019476;28;20459;-52
2022/08/03 04:38:20;;;;;;;6.60;3.53;;;17.30;99.90;;;;;;5025934;28;20512;-51
2022/08/03 04:40:48;;;;;;;6.93;3.50;;;17.30;99.90;;;;;;5023437;28;21126;-51
2022/08/03 04:43:18;;;;;;;10.50;4.03;;;17.40;99.90;;;;;;5030655;28;20482;-52
2022/08/03 04:45:47;;;;;;;4.00;3.53;;;17.40;99.90;;;;;;5021033;28;20519;-52
2022/08/03 04:48:14;;;;;;;7.70;3.80;;;17.40;99.90;;;;;;5029337;28;20459;-51
2022/08/03 04:50:43;;;;;;;7.27;3.80;;;17.40;99.90;;;;;;5028115;28;20482;-51
2022/08/03 04:53:10;;;;;;;5.03;3.50;;;17.50;99.90;;;;;;5029982;28;20552;-51
2022/08/03 04:55:36;;;;;;;12.40;4.17;;;17.60;99.90;;;;;;5027637;28;20589;-52
2022/08/03 04:58:05;;;;;;;5.43;4.23;;;17.60;99.90;;;;;;5026506;28;20494;-51
2022/08/03 05:00:31;;;;;;;5.40;3.67;;;17.70;99.90;;;;;;5025518;28;20454;-51
2022/08/03 05:02:58;;;;;;;10.43;4.20;;;17.80;99.90;;;;;;5025177;28;20482;-51
2022/08/03 05:05:25;;;;;;;12.83;3.70;;;17.90;99.90;;;;;;5022352;28;20529;-51
2022/08/03 05:07:53;;;;;;;11.30;4.27;;;17.90;99.90;;;;;;5027788;28;20516;-51
2022/08/03 05:10:19;;;;;;;13.27;4.53;;;18.00;99.90;;;;;;5027677;28;20478;-51
2022/08/03 05:12:50;;;;;;;19.43;4.07;;;18.10;99.90;;;;;;5029339;28;21010;-52
2022/08/03 05:15:17;;;;;;;24.67;5.27;;;18.10;99.90;;;;;;5019095;28;20493;-52
2022/08/03 05:17:44;;;;;;;12.60;4.50;;;18.20;99.90;;;;;;5027429;28;20494;-51
2022/08/03 05:20:11;;;;;;;33.80;5.27;;;18.30;99.90;;;;;;5027101;28;20869;-51
2022/08/03 05:22:38;;;;;;;30.70;6.70;;;18.40;99.90;;;;;;5024917;28;20521;-52
2022/08/03 05:25:06;;;;;;;9.00;4.80;;;18.50;99.90;;;;;;5026148;28;20506;-51
2022/08/03 05:27:33;;;;;;;20.83;4.80;;;18.60;99.90;;;;;;5024766;28;20520;-51
2022/08/03 05:30:00;;;;;;;12.33;4.60;;;18.70;99.90;;;;;;5025171;28;20510;-52
2022/08/03 05:32:27;;;;;;;16.57;5.47;;;18.90;99.90;;;;;;5026422;28;20469;-51
2022/08/03 05:34:53;;;;;;;6.17;3.37;;;18.90;99.90;;;;;;5027629;28;20527;-51
2022/08/03 05:37:20;;;;;;;12.90;3.70;;;19.10;99.90;;;;;;5028612;28;20467;-50
2022/08/03 05:39:47;;;;;;;8.77;2.97;;;19.20;20.20;;;;;;5026802;28;20877;-50
2022/08/03 05:42:16;;;;;;;5.40;2.87;;;19.30;32.50;;;;;;5028439;28;21034;-51
2022/08/03 05:44:42;;;;;;;3.40;3.10;;;19.50;49.40;;;;;;5029350;28;20841;-50
2022/08/03 05:47:09;;;;;;;12.23;2.97;;;19.60;66.00;;;;;;5024895;28;20491;-50
2022/08/03 05:49:36;;;;;;;5.70;3.00;;;19.80;73.10;;;;;;5029683;28;20514;-52
2022/08/03 05:52:04;;;;;;;8.63;2.80;;;19.90;76.30;;;;;;5029717;28;20463;-51
2022/08/03 05:54:30;;;;;;;4.37;2.27;;;20.10;91.00;;;;;;5026149;28;20492;-51
2022/08/03 05:56:57;;;;;;;11.97;3.17;;;20.30;99.50;;;;;;5028590;28;20524;-52
2022/08/03 05:59:25;;;;;;;2.60;2.50;;;20.40;99.90;;;;;;5027970;28;20458;-52
2022/08/03 06:01:52;;;;;;;5.20;2.80;;;20.60;99.90;;;;;;5024959;28;20455;-51
2022/08/03 06:04:18;;;;;;;3.80;2.60;;;20.80;99.90;;;;;;5033302;28;20890;-51
2022/08/03 06:06:45;;;;;;;3.77;2.70;;;21.00;99.90;;;;;;5034110;28;20513;-50
2022/08/03 06:09:12;;;;;;;5.40;2.60;;;21.10;99.90;;;;;;5034499;28;20493;-50
2022/08/03 06:11:40;;;;;;;2.87;2.67;;;21.20;99.90;;;;;;5030140;28;20467;-52
2022/08/03 06:14:07;;;;;;;4.30;3.10;;;21.40;99.90;;;;;;5032299;28;20987;-52
2022/08/03 06:16:35;;;;;;;3.60;2.20;;;21.50;99.90;;;;;;5024555;28;20463;-52
2022/08/03 06:19:01;;;;;;;3.10;2.80;;;21.60;99.90;;;;;;5033101;28;20508;-52
2022/08/03 06:21:29;;;;;;;4.30;2.40;;;21.80;99.90;;;;;;5026979;28;20456;-52
2022/08/03 06:23:55;;;;;;;3.50;2.60;;;21.90;99.90;;;;;;5029466;28;20541;-52
2022/08/03 06:26:26;;;;;;;1.87;1.73;;;22.10;99.90;;;;;;5024431;28;20463;-52
2022/08/03 06:28:53;;;;;;;6.50;2.13;;;22.30;99.90;;;;;;5029914;28;20456;-51
2022/08/03 06:31:21;;;;;;;3.03;2.20;;;22.50;99.90;;;;;;5029790;28;20889;-52
2022/08/03 06:33:49;;;;;;;3.57;2.17;;;22.60;99.90;;;;;;5035567;28;20513;-52
2022/08/03 06:36:16;;;;;;;4.63;2.40;;;22.70;99.90;;;;;;5036125;28;20458;-52
2022/08/03 06:38:42;;;;;;;2.87;2.40;;;22.80;99.90;;;;;;5042189;28;20462;-52
2022/08/03 06:41:09;;;;;;;3.93;2.53;;;22.90;99.90;;;;;;5031527;28;20490;-52
2022/08/03 06:43:36;;;;;;;2.87;2.10;;;23.00;99.90;;;;;;5037095;28;21058;-52
2022/08/03 06:46:03;;;;;;;3.53;2.27;;;23.00;99.90;;;;;;5025936;28;20473;-50
2022/08/03 06:48:29;;;;;;;4.53;2.37;;;23.20;99.90;;;;;;5031460;28;20508;-52
2022/08/03 06:50:58;;;;;;;7.30;2.27;;;23.30;99.90;;;;;;5031800;28;20521;-53
2022/08/03 06:53:24;;;;;;;3.43;2.00;;;23.40;99.90;;;;;;5033489;28;20489;-51
2022/08/03 06:55:51;;;;;;;10.40;2.13;;;23.50;99.90;;;;;;5028336;28;20517;-51
2022/08/03 06:58:18;;;;;;;11.27;2.27;;;23.60;99.90;;;;;;5029860;28;20538;-52
2022/08/03 07:00:45;;;;;;;3.03;1.90;;;23.80;99.90;;;;;;5030640;28;20455;-51
2022/08/03 07:03:11;;;;;;;10.83;2.30;;;24.00;99.90;;;;;;5031184;28;20478;-52
2022/08/03 07:05:38;;;;;;;3.70;1.93;;;24.20;99.90;;;;;;5026809;28;20494;-52
2022/08/03 07:08:06;;;;;;;2.30;2.20;;;24.40;99.90;;;;;;5023813;28;20459;-52
2022/08/03 07:10:33;;;;;;;2.80;1.70;;;24.60;99.90;;;;;;5027945;28;20483;-51
2022/08/03 07:12:59;;;;;;;4.60;1.90;;;24.80;99.90;;;;;;5025714;28;21059;-51
2022/08/03 07:15:26;;;;;;;3.83;2.10;;;24.90;99.90;;;;;;5030920;28;20878;-51
2022/08/03 07:17:52;;;;;;;4.03;1.93;;;25.00;99.90;;;;;;5034689;28;20443;-52
2022/08/03 07:20:19;;;;;;;5.53;1.87;;;25.10;99.90;;;;;;5043404;28;20459;-51
2022/08/03 07:22:46;;;;;;;7.70;1.90;;;25.20;99.90;;;;;;5026867;28;20467;-51
2022/08/03 07:25:14;;;;;;;4.60;2.07;;;25.50;99.90;;;;;;5028944;28;20541;-53
2022/08/03 07:27:43;;;;;;;5.87;1.40;;;25.60;99.90;;;;;;5028568;28;20459;-51
2022/08/03 07:30:10;;;;;;;3.20;1.73;;;25.70;99.90;;;;;;5026808;28;20498;-53
2022/08/03 07:32:37;;;;;;;2.50;1.73;;;25.70;99.90;;;;;;5030950;28;20529;-51
2022/08/03 07:35:06;;;;;;;5.10;1.80;;;25.80;99.90;;;;;;5029537;28;20871;-51
2022/08/03 07:37:33;;;;;;;1.57;1.47;;;25.80;99.90;;;;;;5032051;28;20462;-51
2022/08/03 07:40:00;;;;;;;3.40;1.73;;;25.80;99.90;;;;;;5029502;28;20459;-51
2022/08/03 07:42:29;;;;;;;2.80;1.87;;;25.90;99.90;;;;;;5028805;28;20532;-52
2022/08/03 07:44:56;;;;;;;5.43;1.70;;;25.90;99.90;;;;;;5031686;28;20486;-51
2022/08/03 07:47:24;;;;;;;4.90;1.50;;;26.00;99.90;;;;;;5029040;28;20536;-53
2022/08/03 07:49:51;;;;;;;23.30;1.67;;;26.10;99.90;;;;;;5034373;28;20506;-51
2022/08/03 07:55:02;;;;;;;1.40;1.30;;;26.10;99.90;;;;;;5028805;28;20509;-51
2022/08/03 07:57:30;;;;;;;3.00;1.73;;;26.30;99.90;;;;;;5025261;28;20463;-50
2022/08/03 07:59:56;;;;;;;3.23;1.30;;;26.40;99.90;;;;;;5028295;28;20455;-51
2022/08/03 08:02:23;;;;;;;3.33;1.50;;;26.40;99.90;;;;;;5022288;28;20467;-51
2022/08/03 08:04:50;;;;;;;2.30;1.80;;;26.40;99.90;;;;;;5026473;28;20482;-52
2022/08/03 08:07:16;;;;;;;4.20;1.40;;;26.60;99.90;;;;;;5024503;28;20526;-53
2022/08/03 08:09:43;;;;;;;6.03;1.70;;;26.70;99.90;;;;;;5025991;28;20579;-51
2022/08/03 08:12:11;;;;;;;1.50;1.40;;;26.70;99.90;;;;;;5021576;28;20940;-51
2022/08/03 08:14:40;;;;;;;2.97;1.93;;;26.70;99.90;;;;;;5030803;28;20475;-51
2022/08/03 08:17:07;;;;;;;3.53;1.60;;;26.80;99.90;;;;;;5022556;28;20570;-51
2022/08/03 08:19:33;;;;;;;2.10;1.30;;;26.80;99.90;;;;;;5029822;28;20489;-51
2022/08/03 08:22:00;;;;;;;1.53;1.20;;;27.00;99.90;;;;;;5021039;28;20520;-52
2022/08/03 08:24:29;;;;;;;4.00;1.73;;;27.10;99.90;;;;;;5027310;28;20491;-52
2022/08/03 08:26:55;;;;;;;2.53;1.47;;;27.20;99.90;;;;;;5025675;28;20530;-51
2022/08/03 08:29:22;;;;;;;5.97;1.50;;;27.30;99.90;;;;;;5028103;28;20495;-52
2022/08/03 08:31:50;;;;;;;3.57;1.80;;;27.30;99.90;;;;;;5022549;28;20483;-53
2022/08/03 08:34:17;;;;;;;1.20;1.10;;;27.40;99.90;;;;;;5028639;23;20534;-52
2022/08/03 08:36:44;;;;;;;1.40;1.40;;;27.40;99.90;;;;;;5009692;28;20495;-51
2022/08/03 08:39:11;;;;;;;2.40;1.40;;;27.60;99.90;;;;;;5007118;28;20464;-52
2022/08/03 08:41:37;;;;;;;4.13;1.43;;;27.70;99.90;;;;;;5019997;28;20464;-52
2022/08/03 08:44:06;;;;;;;2.90;1.70;;;27.80;99.90;;;;;;5009457;28;20525;-52
2022/08/03 08:46:34;;;;;;;1.73;1.10;;;27.90;99.90;;;;;;5003120;28;20491;-52
2022/08/03 08:49:02;;;;;;;1.77;1.63;;;27.90;99.90;;;;;;4998624;28;20622;-52
2022/08/03 08:51:32;;;;;;;1.33;1.33;;;28.00;99.90;;;;;;5004189;28;20516;-52
2022/08/03 08:54:02;;;;;;;1.50;1.40;;;28.10;99.90;;;;;;5003854;28;20854;-52
2022/08/03 08:56:32;;;;;;;3.07;1.70;;;28.20;99.90;;;;;;5010898;28;20514;-52
2022/08/03 08:59:00;;;;;;;1.67;1.57;;;28.30;99.90;;;;;;5011678;28;20933;-52
2022/08/03 09:01:27;;;;;;;1.70;1.60;;;28.30;99.90;;;;;;5007129;28;20746;-51
2022/08/03 09:03:54;;;;;;;4.13;1.53;;;28.30;99.90;;;;;;5013598;28;20475;-51
2022/08/03 09:06:23;;;;;;;1.87;1.70;;;28.30;99.90;;;;;;5024109;28;20458;-51
2022/08/03 09:08:50;;;;;;;3.13;1.53;;;28.40;99.90;;;;;;5015707;28;20455;-51
2022/08/03 09:11:21;;;;;;;2.20;2.00;;;28.70;99.90;;;;;;4998606;28;21071;-51
2022/08/03 09:13:48;;;;;;;8.27;2.77;;;28.90;99.90;;;;;;5002176;28;21315;-51
2022/08/03 09:16:16;;;;;;;1.80;1.70;;;29.20;99.90;;;;;;5000689;28;20483;-52
2022/08/03 09:18:45;;;;;;;5.17;2.10;;;29.30;99.90;;;;;;5002812;28;20459;-52
2022/08/03 09:21:13;;;;;;;2.40;1.90;;;29.50;99.90;;;;;;5000566;28;21410;-51
2022/08/03 09:23:46;;;;;;;2.23;1.63;;;29.60;99.90;;;;;;5003170;28;20483;-52
2022/08/03 09:26:19;;;;;;;1.67;1.57;;;29.70;99.90;;;;;;5000014;28;20478;-52
2022/08/03 09:28:46;;;;;;;1.70;1.60;;;29.70;99.90;;;;;;5010730;28;20454;-52
2022/08/03 09:31:13;;;;;;;2.53;1.53;;;29.60;99.90;;;;;;5004947;28;20577;-52
2022/08/03 09:33:47;;;;;;;3.33;1.80;;;29.60;99.90;;;;;;5004315;28;21190;-51
2022/08/03 09:36:39;;;;;;;2.33;1.80;;;29.60;99.90;;;;;;5008073;28;20463;-51
2022/08/03 09:39:10;;;;;;;4.10;1.30;;;29.40;99.90;;;;;;5000306;28;20586;-51
2022/08/03 09:41:38;;;;;;;4.80;1.80;;;29.30;99.90;;;;;;5000329;28;20467;-51
2022/08/03 09:44:04;;;;;;;1.93;1.83;;;29.40;99.90;;;;;;5004256;28;20479;-52
2022/08/03 09:46:32;;;;;;;1.60;1.50;;;29.60;99.90;;;;;;5009770;28;20487;-51
2022/08/03 09:49:12;;;;;;;3.77;1.63;;;29.60;99.90;;;;;;5004201;28;21197;-51
2022/08/03 09:51:39;;;;;;;2.50;1.30;;;29.70;99.90;;;;;;4997670;28;20630;-51
2022/08/03 09:54:07;;;;;;;3.03;1.50;;;29.70;99.90;;;;;;4997202;28;20571;-51
2022/08/03 09:56:42;;;;;;;1.80;1.70;;;29.60;99.90;;;;;;5006288;28;20902;-52
2022/08/03 09:59:10;;;;;;;1.93;1.83;;;29.70;99.90;;;;;;5003225;28;20459;-50
2022/08/03 10:01:38;;;;;;;1.03;1.03;;;29.80;99.90;;;;;;5007388;28;20464;-52
2022/08/03 10:04:05;;;;;;;1.70;1.60;;;29.90;99.90;;;;;;5016240;28;20484;-52
2022/08/03 10:06:31;;;;;;;1.90;1.80;;;30.10;99.90;;;;;;5013778;28;20495;-52
2022/08/03 10:09:08;;;;;;;3.53;1.80;;;30.20;99.90;;;;;;4999189;28;20884;-52
2022/08/03 10:11:36;;;;;;;2.30;1.50;;;30.20;99.90;;;;;;5000292;28;20478;-51
2022/08/03 10:14:04;;;;;;;1.60;1.50;;;30.30;99.90;;;;;;5002082;28;20515;-51
2022/08/03 10:16:34;;;;;;;1.83;1.73;;;30.30;99.90;;;;;;4999191;28;20632;-52
2022/08/03 10:19:00;;;;;;;4.00;1.47;;;30.30;99.90;;;;;;4999790;28;20460;-51
2022/08/03 10:21:32;;;;;;;9.20;1.43;;;30.30;99.90;;;;;;4999771;28;20502;-51
2022/08/03 10:24:02;;;;;;;3.73;1.50;;;30.30;99.90;;;;;;5001770;28;20492;-51
2022/08/03 10:26:32;;;;;;;4.20;1.77;;;30.00;99.90;;;;;;5000086;28;20468;-51
2022/08/03 10:29:01;;;;;;;7.60;1.67;;;30.20;99.90;;;;;;5012573;28;20454;-52
2022/08/03 10:31:35;;;;;;;1.23;1.23;;;30.30;99.90;;;;;;5013923;28;20506;-51
2022/08/03 10:34:04;;;;;;;2.17;1.27;;;30.70;99.90;;;;;;5000930;28;20492;-52
2022/08/03 10:36:37;;;;;;;1.80;1.43;;;30.70;99.90;;;;;;5012427;28;20456;-51
2022/08/03 10:39:04;;;;;;;2.67;1.23;;;30.80;99.90;;;;;;5017670;28;20456;-51
2022/08/03 10:41:37;;;;;;;1.80;1.67;;;30.80;99.90;;;;;;5011375;28;20519;-51
2022/08/03 10:44:07;;;;;;;2.00;1.60;;;30.80;99.90;;;;;;4998439;28;20512;-52
2022/08/03 10:46:36;;;;;;;1.53;1.40;;;30.90;99.90;;;;;;5004174;28;20577;-51
2022/08/03 10:49:03;;;;;;;2.50;1.30;;;31.00;99.90;;;;;;5007558;28;20468;-51
2022/08/03 10:51:31;;;;;;;2.70;1.17;;;31.00;99.90;;;;;;5002197;28;20522;-51
2022/08/03 10:53:59;;;;;;;1.40;1.30;;;31.00;99.90;;;;;;5000305;28;20590;-52
2022/08/03 10:59:59;;;;;;;1.83;1.30;;;31.20;99.90;;;;;;5005930;28;20466;-52
2022/08/03 11:02:58;;;;;;;1.80;1.70;;;31.20;99.90;;;;;;5022470;28;20817;-51
2022/08/03 11:05:26;;;;;;;1.83;1.73;;;31.10;99.90;;;;;;5018740;28;20495;-51
2022/08/03 11:08:18;;;;;;;1.90;1.20;;;31.20;99.90;;;;;;5010103;28;20460;-52
2022/08/03 11:10:45;;;;;;;3.57;1.63;;;31.30;99.90;;;;;;5012003;28;20958;-52
2022/08/03 11:13:15;;;;;;;1.40;1.30;;;31.20;99.90;;;;;;5008704;28;20534;-51
2022/08/03 11:15:44;;;;;;;1.23;1.10;;;31.10;99.90;;;;;;5018857;28;20464;-52
2022/08/03 11:18:11;;;;;;;1.87;1.00;;;31.20;99.90;;;;;;5003180;28;20530;-51
2022/08/03 11:20:49;;;;;;;1.60;1.50;;;31.30;99.90;;;;;;5019633;28;20447;-52
2022/08/03 11:23:19;;;;;;;1.80;1.20;;;31.40;99.90;;;;;;5013572;28;20490;-52
2022/08/03 11:26:11;;;;;;;2.07;1.50;;;31.30;99.90;;;;;;5022783;28;20513;-51
2022/08/03 11:28:40;;;;;;;2.30;1.37;;;31.40;99.90;;;;;;5008081;28;20466;-52
2022/08/03 11:31:56;;;;;;;1.20;1.20;;;31.40;99.90;;;;;;5008512;28;20503;-52
2022/08/03 11:34:23;;;;;;;3.07;1.50;;;31.50;99.90;;;;;;5007735;28;20586;-51
2022/08/03 11:37:22;;;;;;;9.07;1.40;;;31.60;99.90;;;;;;5003906;28;20459;-52
2022/08/03 11:39:52;;;;;;;8.30;1.60;;;31.70;99.90;;;;;;5004976;28;20957;-52
2022/08/03 11:42:42;;;;;;;4.00;1.33;;;31.70;99.90;;;;;;5012231;28;20435;-52
2022/08/03 11:45:10;;;;;;;1.30;1.20;;;31.70;99.90;;;;;;5018635;28;20499;-52
2022/08/03 11:47:40;;;;;;;1.10;1.10;;;31.70;99.90;;;;;;5023183;28;20517;-52
2022/08/03 11:50:07;;;;;;;3.50;1.60;;;31.90;99.90;;;;;;5003525;28;20806;-52
2022/08/03 11:52:37;;;;;;;1.50;1.40;;;32.10;99.90;;;;;;5011132;28;20524;-52
2022/08/03 11:55:12;;;;;;;1.20;1.00;;;31.90;99.90;;;;;;5005718;28;20542;-52
2022/08/03 11:57:39;;;;;;;3.80;1.90;;;32.00;99.90;;;;;;5015475;28;20459;-52
2022/08/03 12:00:22;;;;;;;1.03;0.93;;;31.90;99.90;;;;;;5016771;28;20888;-52
2022/08/03 12:03:00;;;;;;;2.83;1.20;;;32.00;99.90;;;;;;5017085;28;20439;-52
2022/08/03 12:05:38;;;;;;;1.10;1.10;;;32.10;99.90;;;;;;5008531;28;20518;-51
2022/08/03 12:08:05;;;;;;;1.10;1.10;;;32.10;99.90;;;;;;5014382;28;20851;-51
2022/08/03 12:10:32;;;;;;;1.20;1.10;;;32.30;99.90;;;;;;5019568;28;20494;-52
2022/08/03 12:13:00;;;;;;;2.87;1.40;;;32.30;99.90;;;;;;5015836;28;21197;-50
2022/08/03 12:15:30;;;;;;;1.20;1.20;;;32.30;99.90;;;;;;5012086;28;20958;-51
2022/08/03 12:17:57;;;;;;;1.00;1.00;;;32.30;99.90;;;;;;5015094;28;20460;-51
2022/08/03 12:20:25;;;;;;;3.47;1.33;;;32.30;99.90;;;;;;5004996;28;20463;-52
2022/08/03 12:22:52;;;;;;;1.20;1.10;;;32.50;99.90;;;;;;5010413;28;20460;-52
2022/08/03 12:25:23;;;;;;;2.90;1.10;;;32.40;99.90;;;;;;5004743;28;20464;-52
2022/08/03 12:27:50;;;;;;;1.10;0.90;;;32.40;99.90;;;;;;5014997;28;20469;-52
2022/08/03 12:30:17;;;;;;;1.57;1.17;;;32.40;99.90;;;;;;4999655;28;20531;-52
2022/08/03 12:32:45;;;;;;;1.80;1.40;;;32.30;99.90;;;;;;4993340;28;20570;-51
2022/08/03 12:35:22;;;;;;;1.20;1.20;;;32.30;99.90;;;;;;4990627;28;21098;-52
2022/08/03 12:37:50;;;;;;;2.80;1.10;;;32.10;99.90;;;;;;5002738;28;20458;-53
2022/08/03 12:40:26;;;;;;;2.60;1.30;;;31.80;99.90;;;;;;4998651;28;20526;-51
2022/08/03 12:42:52;;;;;;;3.97;0.90;;;32.00;99.90;;;;;;5009579;28;20955;-51
2022/08/03 12:45:23;;;;;;;5.83;1.60;;;32.00;99.90;;;;;;5002648;28;20463;-51
2022/08/03 12:47:53;;;;;;;2.50;1.37;;;32.10;99.90;;;;;;4995037;28;20467;-51
2022/08/03 12:50:30;;;;;;;11.73;1.20;;;32.20;99.90;;;;;;5006169;28;20470;-51
2022/08/03 12:52:58;;;;;;;3.80;1.30;;;32.20;99.90;;;;;;5007495;28;20511;-52
2022/08/03 12:55:32;;;;;;;1.30;0.83;;;32.10;99.90;;;;;;5012111;28;20634;-52
2022/08/03 12:57:59;;;;;;;1.93;1.60;;;32.30;99.90;;;;;;5009034;28;20470;-51
2022/08/03 13:00:26;;;;;;;1.37;1.30;;;32.40;99.90;;;;;;5021619;28;20492;-53
2022/08/03 13:03:02;;;;;;;4.73;1.80;;;32.40;99.90;;;;;;5011274;28;20466;-51
2022/08/03 13:05:29;;;;;;;2.80;1.47;;;32.50;99.90;;;;;;5003595;28;20513;-52
2022/08/03 13:07:56;;;;;;;9.27;1.30;;;32.60;99.90;;;;;;5009340;28;20964;-52